sensor_id;sensor_type;location;lat;lon;timestamp;P1;durP1;ratioP1;P2;durP2;ratioP2
58294;SDS011;45705;55.592;37.460;2023-08-21T00:02:03;6.57;;;2.40;;
58294;SDS011;45705;55.592;37.460;2023-08-21T00:04:30;2.50;;;2.28;;
58294;SDS011;45705;55.592;37.460;2023-08-21T00:06:56;4.03;;;2.55;;
58294;SDS011;45705;55.592;37.460;2023-08-21T00:09:21;3.80;;;2.97;;
58294;SDS011;45705;55.592;37.460;2023-08-21T00:11:47;4.03;;;3.30;;
58294;SDS011;45705;55.592;37.460;2023-08-21T00:14:13;6.72;;;3.90;;
58294;SDS011;45705;55.592;37.460;2023-08-21T00:16:39;4.03;;;3.15;;
58294;SDS011;45705;55.592;37.460;2023-08-21T00:19:04;3.25;;;2.72;;
58294;SDS011;45705;55.592;37.460;2023-08-21T00:21:30;4.38;;;2.55;;
58294;SDS011;45705;55.592;37.460;2023-08-21T00:23:56;6.20;;;2.67;;
58294;SDS011;45705;55.592;37.460;2023-08-21T00:26:22;5.32;;;3.22;;
58294;SDS011;45705;55.592;37.460;2023-08-21T00:28:48;4.35;;;3.30;;
58294;SDS011;45705;55.592;37.460;2023-08-21T00:31:13;3.20;;;2.90;;
58294;SDS011;45705;55.592;37.460;2023-08-21T00:33:39;4.97;;;3.25;;
58294;SDS011;45705;55.592;37.460;2023-08-21T00:36:05;7.30;;;3.55;;
58294;SDS011;45705;55.592;37.460;2023-08-21T00:38:31;3.95;;;3.55;;
58294;SDS011;45705;55.592;37.460;2023-08-21T00:40:58;4.82;;;3.78;;
58294;SDS011;45705;55.592;37.460;2023-08-21T00:43:24;5.38;;;4.32;;
58294;SDS011;45705;55.592;37.460;2023-08-21T00:45:49;7.03;;;4.63;;
58294;SDS011;45705;55.592;37.460;2023-08-21T00:48:16;6.28;;;4.38;;
58294;SDS011;45705;55.592;37.460;2023-08-21T00:50:42;8.68;;;5.75;;
58294;SDS011;45705;55.592;37.460;2023-08-21T00:53:10;6.38;;;5.65;;
58294;SDS011;45705;55.592;37.460;2023-08-21T00:55:36;8.35;;;6.22;;
58294;SDS011;45705;55.592;37.460;2023-08-21T00:58:03;7.35;;;6.03;;
58294;SDS011;45705;55.592;37.460;2023-08-21T01:00:30;8.98;;;6.22;;
58294;SDS011;45705;55.592;37.460;2023-08-21T01:02:56;7.88;;;6.32;;
58294;SDS011;45705;55.592;37.460;2023-08-21T01:05:22;9.82;;;6.75;;
58294;SDS011;45705;55.592;37.460;2023-08-21T01:16:23;9.52;;;7.30;;
58294;SDS011;45705;55.592;37.460;2023-08-21T01:18:49;14.43;;;8.63;;
58294;SDS011;45705;55.592;37.460;2023-08-21T01:21:16;11.15;;;7.57;;
58294;SDS011;45705;55.592;37.460;2023-08-21T01:23:42;10.40;;;8.15;;
58294;SDS011;45705;55.592;37.460;2023-08-21T01:26:09;13.13;;;8.95;;
58294;SDS011;45705;55.592;37.460;2023-08-21T01:28:34;9.93;;;8.68;;
58294;SDS011;45705;55.592;37.460;2023-08-21T01:31:08;12.30;;;9.50;;
58294;SDS011;45705;55.592;37.460;2023-08-21T01:33:51;11.43;;;7.82;;
58294;SDS011;45705;55.592;37.460;2023-08-21T01:36:19;9.73;;;7.47;;
58294;SDS011;45705;55.592;37.460;2023-08-21T01:38:46;9.23;;;7.50;;
58294;SDS011;45705;55.592;37.460;2023-08-21T01:41:13;10.77;;;8.02;;
58294;SDS011;45705;55.592;37.460;2023-08-21T01:43:38;11.55;;;7.72;;
58294;SDS011;45705;55.592;37.460;2023-08-21T01:46:06;10.02;;;7.95;;
58294;SDS011;45705;55.592;37.460;2023-08-21T01:48:33;11.93;;;7.30;;
58294;SDS011;45705;55.592;37.460;2023-08-21T01:51:02;9.60;;;8.20;;
58294;SDS011;45705;55.592;37.460;2023-08-21T01:53:28;13.13;;;7.88;;
58294;SDS011;45705;55.592;37.460;2023-08-21T01:55:54;9.73;;;7.70;;
58294;SDS011;45705;55.592;37.460;2023-08-21T01:58:20;11.60;;;8.73;;
58294;SDS011;45705;55.592;37.460;2023-08-21T02:00:46;9.90;;;8.38;;
58294;SDS011;45705;55.592;37.460;2023-08-21T02:03:13;13.18;;;8.98;;
58294;SDS011;45705;55.592;37.460;2023-08-21T02:05:39;11.52;;;9.02;;
58294;SDS011;45705;55.592;37.460;2023-08-21T02:08:07;11.82;;;9.27;;
58294;SDS011;45705;55.592;37.460;2023-08-21T02:10:34;14.43;;;8.93;;
58294;SDS011;45705;55.592;37.460;2023-08-21T02:13:00;14.93;;;9.30;;
58294;SDS011;45705;55.592;37.460;2023-08-21T02:15:26;10.18;;;8.52;;
58294;SDS011;45705;55.592;37.460;2023-08-21T02:17:52;13.90;;;9.52;;
58294;SDS011;45705;55.592;37.460;2023-08-21T02:20:19;12.40;;;9.90;;
58294;SDS011;45705;55.592;37.460;2023-08-21T02:22:45;10.82;;;8.55;;
58294;SDS011;45705;55.592;37.460;2023-08-21T02:25:10;11.70;;;9.65;;
58294;SDS011;45705;55.592;37.460;2023-08-21T02:27:36;12.27;;;9.25;;
58294;SDS011;45705;55.592;37.460;2023-08-21T02:30:02;11.88;;;9.45;;
58294;SDS011;45705;55.592;37.460;2023-08-21T02:32:30;12.90;;;8.73;;
58294;SDS011;45705;55.592;37.460;2023-08-21T02:34:56;12.75;;;9.55;;
58294;SDS011;45705;55.592;37.460;2023-08-21T02:37:22;11.07;;;8.52;;
58294;SDS011;45705;55.592;37.460;2023-08-21T02:39:48;15.65;;;9.48;;
58294;SDS011;45705;55.592;37.460;2023-08-21T02:42:13;8.82;;;7.10;;
58294;SDS011;45705;55.592;37.460;2023-08-21T02:44:39;10.57;;;8.02;;
58294;SDS011;45705;55.592;37.460;2023-08-21T02:47:05;10.93;;;7.80;;
58294;SDS011;45705;55.592;37.460;2023-08-21T02:49:31;10.23;;;8.10;;
58294;SDS011;45705;55.592;37.460;2023-08-21T02:51:57;15.25;;;8.23;;
58294;SDS011;45705;55.592;37.460;2023-08-21T02:54:23;9.75;;;7.55;;
58294;SDS011;45705;55.592;37.460;2023-08-21T02:56:48;11.00;;;6.53;;
58294;SDS011;45705;55.592;37.460;2023-08-21T02:59:14;14.60;;;7.85;;
58294;SDS011;45705;55.592;37.460;2023-08-21T03:01:40;11.02;;;7.40;;
58294;SDS011;45705;55.592;37.460;2023-08-21T03:04:06;9.80;;;6.43;;
58294;SDS011;45705;55.592;37.460;2023-08-21T03:06:32;6.85;;;5.45;;
58294;SDS011;45705;55.592;37.460;2023-08-21T03:08:57;7.60;;;5.82;;
58294;SDS011;45705;55.592;37.460;2023-08-21T03:11:24;10.05;;;5.25;;
58294;SDS011;45705;55.592;37.460;2023-08-21T03:13:51;7.78;;;5.05;;
58294;SDS011;45705;55.592;37.460;2023-08-21T03:16:17;7.05;;;5.00;;
58294;SDS011;45705;55.592;37.460;2023-08-21T03:18:59;7.38;;;5.05;;
58294;SDS011;45705;55.592;37.460;2023-08-21T03:21:28;9.52;;;5.53;;
58294;SDS011;45705;55.592;37.460;2023-08-21T03:23:55;9.32;;;5.75;;
58294;SDS011;45705;55.592;37.460;2023-08-21T03:26:22;10.23;;;5.13;;
58294;SDS011;45705;55.592;37.460;2023-08-21T03:28:49;6.40;;;4.35;;
58294;SDS011;45705;55.592;37.460;2023-08-21T03:31:15;8.43;;;5.18;;
58294;SDS011;45705;55.592;37.460;2023-08-21T03:33:41;8.07;;;4.82;;
58294;SDS011;45705;55.592;37.460;2023-08-21T03:36:07;8.25;;;4.45;;
58294;SDS011;45705;55.592;37.460;2023-08-21T03:38:34;5.63;;;4.15;;
58294;SDS011;45705;55.592;37.460;2023-08-21T03:41:00;5.65;;;4.18;;
58294;SDS011;45705;55.592;37.460;2023-08-21T03:43:26;7.80;;;4.25;;
58294;SDS011;45705;55.592;37.460;2023-08-21T03:45:52;11.10;;;5.18;;
58294;SDS011;45705;55.592;37.460;2023-08-21T03:48:17;7.53;;;4.25;;
58294;SDS011;45705;55.592;37.460;2023-08-21T03:50:43;5.03;;;3.80;;
58294;SDS011;45705;55.592;37.460;2023-08-21T03:53:09;10.50;;;4.28;;
58294;SDS011;45705;55.592;37.460;2023-08-21T03:55:35;5.07;;;4.28;;
58294;SDS011;45705;55.592;37.460;2023-08-21T03:58:00;9.32;;;4.22;;
58294;SDS011;45705;55.592;37.460;2023-08-21T04:00:27;11.07;;;4.50;;
58294;SDS011;45705;55.592;37.460;2023-08-21T04:02:53;4.30;;;3.90;;
58294;SDS011;45705;55.592;37.460;2023-08-21T04:05:18;3.90;;;3.42;;
58294;SDS011;45705;55.592;37.460;2023-08-21T04:07:44;4.38;;;3.40;;
58294;SDS011;45705;55.592;37.460;2023-08-21T04:10:10;12.57;;;4.25;;
58294;SDS011;45705;55.592;37.460;2023-08-21T04:12:36;6.70;;;4.18;;
58294;SDS011;45705;55.592;37.460;2023-08-21T04:15:02;5.90;;;3.53;;
58294;SDS011;45705;55.592;37.460;2023-08-21T04:17:30;11.38;;;4.30;;
58294;SDS011;45705;55.592;37.460;2023-08-21T04:19:56;6.03;;;3.85;;
58294;SDS011;45705;55.592;37.460;2023-08-21T04:22:22;6.68;;;4.00;;
58294;SDS011;45705;55.592;37.460;2023-08-21T04:24:48;9.77;;;4.35;;
58294;SDS011;45705;55.592;37.460;2023-08-21T04:27:13;11.68;;;4.15;;
58294;SDS011;45705;55.592;37.460;2023-08-21T04:29:39;9.25;;;5.00;;
58294;SDS011;45705;55.592;37.460;2023-08-21T04:32:06;17.58;;;8.43;;
58294;SDS011;45705;55.592;37.460;2023-08-21T04:34:32;16.40;;;6.65;;
58294;SDS011;45705;55.592;37.460;2023-08-21T04:36:58;10.48;;;4.85;;
58294;SDS011;45705;55.592;37.460;2023-08-21T04:39:25;6.40;;;4.15;;
58294;SDS011;45705;55.592;37.460;2023-08-21T04:41:51;6.53;;;3.65;;
58294;SDS011;45705;55.592;37.460;2023-08-21T04:44:18;7.00;;;3.97;;
58294;SDS011;45705;55.592;37.460;2023-08-21T04:46:47;6.80;;;3.55;;
58294;SDS011;45705;55.592;37.460;2023-08-21T04:49:14;5.43;;;3.15;;
58294;SDS011;45705;55.592;37.460;2023-08-21T04:51:40;4.43;;;3.03;;
58294;SDS011;45705;55.592;37.460;2023-08-21T04:54:06;7.85;;;2.80;;
58294;SDS011;45705;55.592;37.460;2023-08-21T04:56:32;6.15;;;3.33;;
58294;SDS011;45705;55.592;37.460;2023-08-21T04:58:57;6.82;;;2.85;;
58294;SDS011;45705;55.592;37.460;2023-08-21T05:01:25;4.82;;;2.92;;
58294;SDS011;45705;55.592;37.460;2023-08-21T05:03:52;6.45;;;2.97;;
58294;SDS011;45705;55.592;37.460;2023-08-21T05:06:19;5.30;;;2.83;;
58294;SDS011;45705;55.592;37.460;2023-08-21T05:08:45;6.45;;;2.78;;
58294;SDS011;45705;55.592;37.460;2023-08-21T05:11:11;6.03;;;2.45;;
58294;SDS011;45705;55.592;37.460;2023-08-21T05:13:39;5.75;;;2.80;;
58294;SDS011;45705;55.592;37.460;2023-08-21T05:16:07;6.35;;;2.58;;
58294;SDS011;45705;55.592;37.460;2023-08-21T05:18:36;4.95;;;2.42;;
58294;SDS011;45705;55.592;37.460;2023-08-21T05:21:02;4.07;;;2.92;;
58294;SDS011;45705;55.592;37.460;2023-08-21T05:23:28;5.63;;;2.50;;
58294;SDS011;45705;55.592;37.460;2023-08-21T05:25:59;3.85;;;2.67;;
58294;SDS011;45705;55.592;37.460;2023-08-21T05:28:25;3.20;;;2.47;;
58294;SDS011;45705;55.592;37.460;2023-08-21T05:30:50;5.43;;;3.10;;
58294;SDS011;45705;55.592;37.460;2023-08-21T05:33:18;3.72;;;2.33;;
58294;SDS011;45705;55.592;37.460;2023-08-21T05:35:46;4.47;;;2.33;;
58294;SDS011;45705;55.592;37.460;2023-08-21T05:38:12;5.88;;;2.60;;
58294;SDS011;45705;55.592;37.460;2023-08-21T05:40:39;7.70;;;3.03;;
58294;SDS011;45705;55.592;37.460;2023-08-21T05:43:08;8.35;;;2.50;;
58294;SDS011;45705;55.592;37.460;2023-08-21T05:48:01;7.13;;;2.92;;
58294;SDS011;45705;55.592;37.460;2023-08-21T05:50:27;6.80;;;2.90;;
58294;SDS011;45705;55.592;37.460;2023-08-21T05:52:54;3.60;;;2.25;;
58294;SDS011;45705;55.592;37.460;2023-08-21T05:55:20;4.95;;;2.50;;
58294;SDS011;45705;55.592;37.460;2023-08-21T05:57:46;3.88;;;2.20;;
58294;SDS011;45705;55.592;37.460;2023-08-21T06:00:14;5.95;;;2.42;;
58294;SDS011;45705;55.592;37.460;2023-08-21T06:02:41;7.07;;;2.15;;
58294;SDS011;45705;55.592;37.460;2023-08-21T06:05:12;2.85;;;1.85;;
58294;SDS011;45705;55.592;37.460;2023-08-21T06:07:38;1.83;;;1.63;;
58294;SDS011;45705;55.592;37.460;2023-08-21T06:10:06;6.60;;;1.90;;
58294;SDS011;45705;55.592;37.460;2023-08-21T06:12:33;3.10;;;1.83;;
58294;SDS011;45705;55.592;37.460;2023-08-21T06:14:59;3.88;;;2.00;;
58294;SDS011;45705;55.592;37.460;2023-08-21T06:17:27;4.47;;;2.20;;
58294;SDS011;45705;55.592;37.460;2023-08-21T06:19:53;5.65;;;2.00;;
58294;SDS011;45705;55.592;37.460;2023-08-21T06:22:19;5.05;;;2.42;;
58294;SDS011;45705;55.592;37.460;2023-08-21T06:24:45;5.03;;;2.08;;
58294;SDS011;45705;55.592;37.460;2023-08-21T06:27:14;8.00;;;2.63;;
58294;SDS011;45705;55.592;37.460;2023-08-21T06:29:40;4.07;;;2.05;;
58294;SDS011;45705;55.592;37.460;2023-08-21T06:32:05;5.60;;;2.10;;
58294;SDS011;45705;55.592;37.460;2023-08-21T06:34:32;5.93;;;1.92;;
58294;SDS011;45705;55.592;37.460;2023-08-21T06:36:58;4.60;;;1.73;;
58294;SDS011;45705;55.592;37.460;2023-08-21T06:39:25;3.40;;;1.95;;
58294;SDS011;45705;55.592;37.460;2023-08-21T06:41:51;4.55;;;1.90;;
58294;SDS011;45705;55.592;37.460;2023-08-21T06:44:18;2.28;;;1.73;;
58294;SDS011;45705;55.592;37.460;2023-08-21T06:46:44;6.53;;;2.30;;
58294;SDS011;45705;55.592;37.460;2023-08-21T06:49:10;4.15;;;2.03;;
58294;SDS011;45705;55.592;37.460;2023-08-21T06:51:36;3.60;;;2.10;;
58294;SDS011;45705;55.592;37.460;2023-08-21T06:54:01;4.53;;;2.40;;
58294;SDS011;45705;55.592;37.460;2023-08-21T06:56:27;6.15;;;2.40;;
58294;SDS011;45705;55.592;37.460;2023-08-21T06:58:53;5.38;;;2.25;;
58294;SDS011;45705;55.592;37.460;2023-08-21T07:01:21;3.83;;;1.97;;
58294;SDS011;45705;55.592;37.460;2023-08-21T07:03:47;4.70;;;1.83;;
58294;SDS011;45705;55.592;37.460;2023-08-21T07:06:13;4.07;;;1.95;;
58294;SDS011;45705;55.592;37.460;2023-08-21T07:08:38;5.60;;;1.80;;
58294;SDS011;45705;55.592;37.460;2023-08-21T07:11:06;3.33;;;1.67;;
58294;SDS011;45705;55.592;37.460;2023-08-21T07:13:33;4.22;;;2.10;;
58294;SDS011;45705;55.592;37.460;2023-08-21T07:15:59;4.95;;;1.92;;
58294;SDS011;45705;55.592;37.460;2023-08-21T07:18:31;6.38;;;2.00;;
58294;SDS011;45705;55.592;37.460;2023-08-21T07:23:24;5.38;;;2.50;;
58294;SDS011;45705;55.592;37.460;2023-08-21T07:25:50;3.42;;;2.22;;
58294;SDS011;45705;55.592;37.460;2023-08-21T07:28:16;8.20;;;2.45;;
58294;SDS011;45705;55.592;37.460;2023-08-21T07:30:42;3.63;;;2.42;;
58294;SDS011;45705;55.592;37.460;2023-08-21T07:33:07;4.40;;;2.40;;
58294;SDS011;45705;55.592;37.460;2023-08-21T07:35:33;2.85;;;1.88;;
58294;SDS011;45705;55.592;37.460;2023-08-21T07:37:59;3.80;;;2.30;;
58294;SDS011;45705;55.592;37.460;2023-08-21T07:40:25;6.72;;;2.08;;
58294;SDS011;45705;55.592;37.460;2023-08-21T07:42:50;4.60;;;2.13;;
58294;SDS011;45705;55.592;37.460;2023-08-21T07:45:16;4.85;;;2.13;;
58294;SDS011;45705;55.592;37.460;2023-08-21T07:47:42;4.85;;;2.35;;
58294;SDS011;45705;55.592;37.460;2023-08-21T07:50:08;6.43;;;2.60;;
58294;SDS011;45705;55.592;37.460;2023-08-21T07:52:35;7.53;;;2.40;;
58294;SDS011;45705;55.592;37.460;2023-08-21T07:55:01;8.00;;;2.20;;
58294;SDS011;45705;55.592;37.460;2023-08-21T07:57:30;4.40;;;2.00;;
58294;SDS011;45705;55.592;37.460;2023-08-21T07:59:56;8.52;;;2.30;;
58294;SDS011;45705;55.592;37.460;2023-08-21T08:02:22;2.83;;;2.05;;
58294;SDS011;45705;55.592;37.460;2023-08-21T08:04:49;2.97;;;2.30;;
58294;SDS011;45705;55.592;37.460;2023-08-21T08:07:14;5.95;;;2.13;;
58294;SDS011;45705;55.592;37.460;2023-08-21T08:09:40;4.00;;;2.50;;
58294;SDS011;45705;55.592;37.460;2023-08-21T08:12:06;3.13;;;2.40;;
58294;SDS011;45705;55.592;37.460;2023-08-21T08:14:32;7.13;;;2.60;;
58294;SDS011;45705;55.592;37.460;2023-08-21T08:16:58;3.97;;;2.15;;
58294;SDS011;45705;55.592;37.460;2023-08-21T08:19:24;4.32;;;2.25;;
58294;SDS011;45705;55.592;37.460;2023-08-21T08:21:50;2.97;;;2.08;;
58294;SDS011;45705;55.592;37.460;2023-08-21T08:24:15;5.70;;;2.25;;
58294;SDS011;45705;55.592;37.460;2023-08-21T08:26:41;6.90;;;2.58;;
58294;SDS011;45705;55.592;37.460;2023-08-21T08:29:08;5.38;;;2.70;;
58294;SDS011;45705;55.592;37.460;2023-08-21T08:31:34;3.42;;;2.45;;
58294;SDS011;45705;55.592;37.460;2023-08-21T08:34:00;9.73;;;4.07;;
58294;SDS011;45705;55.592;37.460;2023-08-21T08:36:26;12.73;;;4.80;;
58294;SDS011;45705;55.592;37.460;2023-08-21T08:38:52;7.97;;;4.00;;
58294;SDS011;45705;55.592;37.460;2023-08-21T08:41:25;5.75;;;2.28;;
58294;SDS011;45705;55.592;37.460;2023-08-21T08:43:58;5.75;;;2.28;;
58294;SDS011;45705;55.592;37.460;2023-08-21T08:46:27;3.83;;;2.80;;
58294;SDS011;45705;55.592;37.460;2023-08-21T08:48:54;13.35;;;5.75;;
58294;SDS011;45705;55.592;37.460;2023-08-21T08:51:22;5.90;;;3.22;;
58294;SDS011;45705;55.592;37.460;2023-08-21T08:53:50;5.55;;;2.85;;
58294;SDS011;45705;55.592;37.460;2023-08-21T08:56:15;10.48;;;2.70;;
58294;SDS011;45705;55.592;37.460;2023-08-21T08:58:42;8.70;;;4.10;;
58294;SDS011;45705;55.592;37.460;2023-08-21T09:01:08;6.30;;;4.13;;
58294;SDS011;45705;55.592;37.460;2023-08-21T09:03:37;8.25;;;3.92;;
58294;SDS011;45705;55.592;37.460;2023-08-21T09:06:03;5.10;;;2.83;;
58294;SDS011;45705;55.592;37.460;2023-08-21T09:08:29;6.93;;;3.63;;
58294;SDS011;45705;55.592;37.460;2023-08-21T09:10:55;4.50;;;3.00;;
58294;SDS011;45705;55.592;37.460;2023-08-21T09:13:20;6.07;;;2.60;;
58294;SDS011;45705;55.592;37.460;2023-08-21T09:15:47;4.65;;;2.50;;
58294;SDS011;45705;55.592;37.460;2023-08-21T09:18:18;4.10;;;2.30;;
58294;SDS011;45705;55.592;37.460;2023-08-21T09:20:44;4.53;;;2.40;;
58294;SDS011;45705;55.592;37.460;2023-08-21T09:23:13;5.95;;;2.65;;
58294;SDS011;45705;55.592;37.460;2023-08-21T09:25:40;5.47;;;2.70;;
58294;SDS011;45705;55.592;37.460;2023-08-21T09:28:08;6.15;;;2.80;;
58294;SDS011;45705;55.592;37.460;2023-08-21T09:30:44;6.57;;;2.67;;
58294;SDS011;45705;55.592;37.460;2023-08-21T09:33:11;9.45;;;3.22;;
58294;SDS011;45705;55.592;37.460;2023-08-21T09:35:37;5.05;;;2.85;;
58294;SDS011;45705;55.592;37.460;2023-08-21T09:38:05;7.22;;;2.92;;
58294;SDS011;45705;55.592;37.460;2023-08-21T09:40:32;4.30;;;2.67;;
58294;SDS011;45705;55.592;37.460;2023-08-21T09:42:57;5.72;;;2.53;;
58294;SDS011;45705;55.592;37.460;2023-08-21T09:45:25;4.32;;;2.40;;
58294;SDS011;45705;55.592;37.460;2023-08-21T09:47:54;5.50;;;2.58;;
58294;SDS011;45705;55.592;37.460;2023-08-21T09:50:20;6.40;;;2.45;;
58294;SDS011;45705;55.592;37.460;2023-08-21T09:52:47;4.93;;;2.70;;
58294;SDS011;45705;55.592;37.460;2023-08-21T09:55:14;3.08;;;2.40;;
58294;SDS011;45705;55.592;37.460;2023-08-21T09:57:41;6.57;;;2.35;;
58294;SDS011;45705;55.592;37.460;2023-08-21T10:00:07;6.07;;;2.60;;
58294;SDS011;45705;55.592;37.460;2023-08-21T10:02:44;7.15;;;2.72;;
58294;SDS011;45705;55.592;37.460;2023-08-21T10:05:16;5.13;;;2.42;;
58294;SDS011;45705;55.592;37.460;2023-08-21T10:07:43;5.10;;;2.30;;
58294;SDS011;45705;55.592;37.460;2023-08-21T10:10:11;5.30;;;2.85;;
58294;SDS011;45705;55.592;37.460;2023-08-21T10:12:38;6.95;;;2.65;;
58294;SDS011;45705;55.592;37.460;2023-08-21T10:15:04;5.60;;;2.85;;
58294;SDS011;45705;55.592;37.460;2023-08-21T10:17:31;4.63;;;2.30;;
58294;SDS011;45705;55.592;37.460;2023-08-21T10:20:06;10.15;;;2.95;;
58294;SDS011;45705;55.592;37.460;2023-08-21T10:22:48;4.35;;;2.30;;
58294;SDS011;45705;55.592;37.460;2023-08-21T10:25:15;4.95;;;2.55;;
58294;SDS011;45705;55.592;37.460;2023-08-21T10:27:52;6.80;;;2.45;;
58294;SDS011;45705;55.592;37.460;2023-08-21T10:30:27;7.28;;;2.67;;
58294;SDS011;45705;55.592;37.460;2023-08-21T10:32:54;4.97;;;2.28;;
58294;SDS011;45705;55.592;37.460;2023-08-21T10:35:22;4.45;;;2.00;;
58294;SDS011;45705;55.592;37.460;2023-08-21T10:38:06;8.95;;;2.55;;
58294;SDS011;45705;55.592;37.460;2023-08-21T10:43:39;7.30;;;2.30;;
58294;SDS011;45705;55.592;37.460;2023-08-21T10:46:06;4.53;;;2.15;;
58294;SDS011;45705;55.592;37.460;2023-08-21T10:48:32;3.22;;;2.33;;
58294;SDS011;45705;55.592;37.460;2023-08-21T10:50:59;3.03;;;2.35;;
58294;SDS011;45705;55.592;37.460;2023-08-21T10:53:28;2.92;;;2.10;;
58294;SDS011;45705;55.592;37.460;2023-08-21T10:55:54;8.48;;;2.40;;
58294;SDS011;45705;55.592;37.460;2023-08-21T10:58:20;5.18;;;2.72;;
58294;SDS011;45705;55.592;37.460;2023-08-21T11:00:46;5.07;;;2.78;;
58294;SDS011;45705;55.592;37.460;2023-08-21T11:03:12;4.15;;;2.50;;
58294;SDS011;45705;55.592;37.460;2023-08-21T11:05:40;3.90;;;2.95;;
58294;SDS011;45705;55.592;37.460;2023-08-21T11:08:06;4.18;;;2.53;;
58294;SDS011;45705;55.592;37.460;2023-08-21T11:10:32;6.03;;;2.75;;
58294;SDS011;45705;55.592;37.460;2023-08-21T11:12:58;11.23;;;3.00;;
58294;SDS011;45705;55.592;37.460;2023-08-21T11:15:28;3.83;;;2.13;;
58294;SDS011;45705;55.592;37.460;2023-08-21T11:17:55;3.25;;;2.10;;
58294;SDS011;45705;55.592;37.460;2023-08-21T11:20:22;3.30;;;2.50;;
58294;SDS011;45705;55.592;37.460;2023-08-21T11:22:56;7.25;;;2.28;;
58294;SDS011;45705;55.592;37.460;2023-08-21T11:25:23;6.07;;;2.85;;
58294;SDS011;45705;55.592;37.460;2023-08-21T11:27:48;2.92;;;2.17;;
58294;SDS011;45705;55.592;37.460;2023-08-21T11:30:14;4.78;;;2.58;;
58294;SDS011;45705;55.592;37.460;2023-08-21T11:32:40;4.63;;;2.70;;
58294;SDS011;45705;55.592;37.460;2023-08-21T11:35:06;4.35;;;2.50;;
58294;SDS011;45705;55.592;37.460;2023-08-21T11:37:32;5.00;;;2.47;;
58294;SDS011;45705;55.592;37.460;2023-08-21T11:39:58;5.40;;;2.83;;
58294;SDS011;45705;55.592;37.460;2023-08-21T11:42:33;6.25;;;2.60;;
58294;SDS011;45705;55.592;37.460;2023-08-21T11:45:00;19.75;;;9.55;;
58294;SDS011;45705;55.592;37.460;2023-08-21T11:47:31;5.55;;;2.65;;
58294;SDS011;45705;55.592;37.460;2023-08-21T11:50:05;8.55;;;2.70;;
58294;SDS011;45705;55.592;37.460;2023-08-21T11:52:33;5.35;;;2.40;;
58294;SDS011;45705;55.592;37.460;2023-08-21T11:55:01;4.45;;;2.60;;
58294;SDS011;45705;55.592;37.460;2023-08-21T11:57:26;5.60;;;2.72;;
58294;SDS011;45705;55.592;37.460;2023-08-21T11:59:55;5.53;;;2.67;;
58294;SDS011;45705;55.592;37.460;2023-08-21T12:02:27;8.75;;;2.72;;
58294;SDS011;45705;55.592;37.460;2023-08-21T12:05:04;6.55;;;2.75;;
58294;SDS011;45705;55.592;37.460;2023-08-21T12:07:34;5.68;;;2.35;;
58294;SDS011;45705;55.592;37.460;2023-08-21T12:12:25;6.35;;;2.55;;
58294;SDS011;45705;55.592;37.460;2023-08-21T12:14:51;7.95;;;2.63;;
58294;SDS011;45705;55.592;37.460;2023-08-21T12:17:16;3.50;;;2.17;;
58294;SDS011;45705;55.592;37.460;2023-08-21T12:19:42;6.07;;;2.13;;
58294;SDS011;45705;55.592;37.460;2023-08-21T12:22:09;9.10;;;6.57;;
58294;SDS011;45705;55.592;37.460;2023-08-21T12:24:35;13.45;;;7.05;;
58294;SDS011;45705;55.592;37.460;2023-08-21T12:27:02;4.22;;;2.25;;
58294;SDS011;45705;55.592;37.460;2023-08-21T12:29:29;5.97;;;2.53;;
58294;SDS011;45705;55.592;37.460;2023-08-21T12:31:54;4.55;;;2.50;;
58294;SDS011;45705;55.592;37.460;2023-08-21T12:34:20;4.63;;;2.05;;
58294;SDS011;45705;55.592;37.460;2023-08-21T12:36:46;5.32;;;3.15;;
58294;SDS011;45705;55.592;37.460;2023-08-21T12:39:12;6.82;;;3.72;;
58294;SDS011;45705;55.592;37.460;2023-08-21T12:41:39;7.18;;;4.78;;
58294;SDS011;45705;55.592;37.460;2023-08-21T12:44:05;4.75;;;2.50;;
58294;SDS011;45705;55.592;37.460;2023-08-21T12:46:37;6.50;;;2.78;;
58294;SDS011;45705;55.592;37.460;2023-08-21T12:49:03;6.05;;;2.55;;
58294;SDS011;45705;55.592;37.460;2023-08-21T12:51:29;6.25;;;2.20;;
58294;SDS011;45705;55.592;37.460;2023-08-21T12:53:55;4.88;;;2.55;;
58294;SDS011;45705;55.592;37.460;2023-08-21T12:56:21;8.93;;;2.67;;
58294;SDS011;45705;55.592;37.460;2023-08-21T12:58:47;7.20;;;2.38;;
58294;SDS011;45705;55.592;37.460;2023-08-21T13:01:13;6.82;;;2.65;;
58294;SDS011;45705;55.592;37.460;2023-08-21T13:03:44;6.30;;;2.58;;
58294;SDS011;45705;55.592;37.460;2023-08-21T13:06:11;4.75;;;2.60;;
58294;SDS011;45705;55.592;37.460;2023-08-21T13:08:37;6.15;;;2.30;;
58294;SDS011;45705;55.592;37.460;2023-08-21T13:11:03;6.28;;;2.45;;
58294;SDS011;45705;55.592;37.460;2023-08-21T13:13:30;3.30;;;2.05;;
58294;SDS011;45705;55.592;37.460;2023-08-21T13:15:56;4.53;;;2.50;;
58294;SDS011;45705;55.592;37.460;2023-08-21T13:18:22;5.47;;;2.55;;
58294;SDS011;45705;55.592;37.460;2023-08-21T13:20:48;6.75;;;2.50;;
58294;SDS011;45705;55.592;37.460;2023-08-21T13:23:13;4.78;;;2.42;;
58294;SDS011;45705;55.592;37.460;2023-08-21T13:25:39;5.30;;;2.30;;
58294;SDS011;45705;55.592;37.460;2023-08-21T13:28:05;5.20;;;2.38;;
58294;SDS011;45705;55.592;37.460;2023-08-21T13:30:31;6.88;;;2.85;;
58294;SDS011;45705;55.592;37.460;2023-08-21T13:32:56;7.20;;;3.03;;
58294;SDS011;45705;55.592;37.460;2023-08-21T13:35:22;10.40;;;3.03;;
58294;SDS011;45705;55.592;37.460;2023-08-21T13:37:48;7.88;;;2.50;;
58294;SDS011;45705;55.592;37.460;2023-08-21T13:40:16;7.63;;;3.37;;
58294;SDS011;45705;55.592;37.460;2023-08-21T13:42:43;11.50;;;3.13;;
58294;SDS011;45705;55.592;37.460;2023-08-21T13:45:10;15.00;;;3.55;;
58294;SDS011;45705;55.592;37.460;2023-08-21T13:47:38;9.60;;;3.10;;
58294;SDS011;45705;55.592;37.460;2023-08-21T13:50:07;7.18;;;2.90;;
58294;SDS011;45705;55.592;37.460;2023-08-21T13:52:34;7.22;;;3.95;;
58294;SDS011;45705;55.592;37.460;2023-08-21T13:55:00;6.05;;;2.95;;
58294;SDS011;45705;55.592;37.460;2023-08-21T13:57:29;7.95;;;3.17;;
58294;SDS011;45705;55.592;37.460;2023-08-21T13:59:55;8.10;;;3.55;;
58294;SDS011;45705;55.592;37.460;2023-08-21T14:02:21;5.20;;;3.00;;
58294;SDS011;45705;55.592;37.460;2023-08-21T14:04:48;7.13;;;2.97;;
58294;SDS011;45705;55.592;37.460;2023-08-21T14:07:15;4.70;;;2.72;;
58294;SDS011;45705;55.592;37.460;2023-08-21T14:09:40;5.65;;;2.80;;
58294;SDS011;45705;55.592;37.460;2023-08-21T14:12:07;7.13;;;3.05;;
58294;SDS011;45705;55.592;37.460;2023-08-21T14:14:36;12.10;;;2.90;;
58294;SDS011;45705;55.592;37.460;2023-08-21T14:17:02;11.18;;;2.83;;
58294;SDS011;45705;55.592;37.460;2023-08-21T14:19:30;4.40;;;2.53;;
58294;SDS011;45705;55.592;37.460;2023-08-21T14:21:57;8.27;;;3.30;;
58294;SDS011;45705;55.592;37.460;2023-08-21T14:24:24;12.02;;;3.10;;
58294;SDS011;45705;55.592;37.460;2023-08-21T14:26:50;10.27;;;3.58;;
58294;SDS011;45705;55.592;37.460;2023-08-21T14:29:16;13.27;;;3.35;;
58294;SDS011;45705;55.592;37.460;2023-08-21T14:31:41;9.63;;;2.63;;
58294;SDS011;45705;55.592;37.460;2023-08-21T14:34:07;9.60;;;3.03;;
58294;SDS011;45705;55.592;37.460;2023-08-21T14:36:33;6.80;;;2.92;;
58294;SDS011;45705;55.592;37.460;2023-08-21T14:38:58;12.90;;;3.22;;
58294;SDS011;45705;55.592;37.460;2023-08-21T14:41:24;8.63;;;3.00;;
58294;SDS011;45705;55.592;37.460;2023-08-21T14:43:50;7.28;;;3.10;;
58294;SDS011;45705;55.592;37.460;2023-08-21T14:46:16;5.85;;;2.92;;
58294;SDS011;45705;55.592;37.460;2023-08-21T14:48:42;9.10;;;3.22;;
58294;SDS011;45705;55.592;37.460;2023-08-21T14:51:08;7.90;;;3.15;;